Time;durP1;ratioP1;P1;durP2;ratioP2;P2;SDS_P1;SDS_P2;PMS_P1;PMS_P2;Temp;Humidity;BMP_temperature;BMP_pressure;BME280_temperature;BME280_humidity;BME280_pressure;Samples;Min_cycle;Max_cycle;Signal;HPM_P1;HPM_P2
2023/09/09 00:00:48;;;;;;;7.57;4.18;;;;;;;19.35;84.22;100452.78;5086468;28;20055;-31
2023/09/09 00:03:13;;;;;;;10.38;4.18;;;;;;;19.19;85.50;100441.16;5086382;28;20405;-32
2023/09/09 00:05:39;;;;;;;9.35;4.20;;;;;;;19.41;86.78;100444.44;5086465;28;20847;-30
2023/09/09 00:08:05;;;;;;;9.10;3.78;;;;;;;19.73;84.55;100458.81;5085515;28;20030;-31
2023/09/09 00:10:34;;;;;;;10.43;4.00;;;;;;;19.65;83.44;100455.53;5086561;28;20032;-29
2023/09/09 00:13:00;;;;;;;7.85;3.95;;;;;;;19.81;84.61;100444.75;5085938;28;20030;-29
2023/09/09 00:15:26;;;;;;;9.38;4.90;;;;;;;19.84;84.40;100450.44;5086363;28;20024;-30
2023/09/09 00:17:51;;;;;;;9.65;4.20;;;;;;;20.01;83.08;100447.44;5086112;28;20031;-29
2023/09/09 00:20:17;;;;;;;7.65;3.97;;;;;;;20.07;82.41;100446.34;5085125;28;20401;-30
2023/09/09 00:22:42;;;;;;;8.18;4.32;;;;;;;19.88;83.01;100448.00;5086362;28;20458;-30
2023/09/09 00:25:08;;;;;;;8.52;4.40;;;;;;;19.71;84.25;100448.25;5086001;28;20241;-30
2023/09/09 00:27:34;;;;;;;9.05;4.95;;;;;;;19.53;84.75;100436.03;5085924;28;20308;-29
2023/09/09 00:29:59;;;;;;;8.07;4.97;;;;;;;19.73;84.32;100446.09;5085912;28;20015;-29
2023/09/09 00:32:24;;;;;;;10.95;6.20;;;;;;;19.53;82.85;100440.66;5085630;28;20468;-30
2023/09/09 00:34:52;;;;;;;11.68;5.75;;;;;;;19.60;83.19;100431.19;5085323;28;20043;-30
2023/09/09 00:37:17;;;;;;;12.32;6.35;;;;;;;19.51;81.86;100443.59;5085840;28;20024;-29
2023/09/09 00:39:43;;;;;;;11.05;5.90;;;;;;;19.36;81.87;100447.13;5085665;28;20036;-31
2023/09/09 00:42:08;;;;;;;13.95;6.40;;;;;;;19.10;84.67;100440.84;5085547;28;20029;-29
2023/09/09 00:44:33;;;;;;;10.43;6.00;;;;;;;19.19;86.52;100431.13;5085919;28;20024;-32
2023/09/09 00:47:00;;;;;;;13.98;5.68;;;;;;;19.06;87.43;100437.88;5085476;28;20024;-29
2023/09/09 00:49:29;;;;;;;11.48;5.72;;;;;;;19.19;87.27;100435.75;5085672;28;20040;-31
2023/09/09 00:51:55;;;;;;;10.77;5.70;;;;;;;19.17;84.98;100436.00;5093411;28;20042;-30
2023/09/09 00:54:21;;;;;;;10.95;5.10;;;;;;;19.31;84.59;100424.66;5097381;28;20024;-30
2023/09/09 00:56:46;;;;;;;9.15;4.95;;;;;;;19.17;86.18;100430.59;5096391;28;20024;-30
2023/09/09 00:59:12;;;;;;;9.25;4.70;;;;;;;19.16;84.84;100426.25;5085690;28;20036;-30
2023/09/09 01:01:37;;;;;;;9.13;4.78;;;;;;;19.01;85.12;100429.75;5085526;28;20031;-32
2023/09/09 01:04:03;;;;;;;9.85;4.90;;;;;;;18.94;84.66;100433.75;5085325;28;20032;-30
2023/09/09 01:06:29;;;;;;;8.55;4.25;;;;;;;18.96;85.50;100424.34;5085420;28;20028;-32
2023/09/09 01:08:54;;;;;;;9.32;4.38;;;;;;;18.67;84.83;100413.09;5085575;28;20054;-30
2023/09/09 01:11:20;;;;;;;7.72;4.30;;;;;;;18.55;86.12;100407.09;5085550;28;20046;-29
2023/09/09 01:13:45;;;;;;;10.27;4.85;;;;;;;18.44;86.13;100414.34;5085548;28;20431;-32
2023/09/09 01:16:13;;;;;;;11.27;4.53;;;;;;;18.27;86.91;100415.34;5085302;28;20024;-29
2023/09/09 01:18:39;;;;;;;13.82;4.82;;;;;;;18.45;86.23;100403.31;5085403;28;20024;-29
2023/09/09 01:21:08;;;;;;;8.40;4.57;;;;;;;18.48;85.01;100394.66;5085125;28;20406;-30
2023/09/09 01:23:34;;;;;;;8.10;4.47;;;;;;;18.48;85.02;100412.75;5085404;28;20569;-31
2023/09/09 01:25:59;;;;;;;7.72;4.28;;;;;;;18.47;85.81;100414.66;5085225;28;20024;-29
2023/09/09 01:28:25;;;;;;;10.30;4.55;;;;;;;18.42;85.87;100406.50;5084790;28;20032;-29
2023/09/09 01:31:06;;;;;;;10.55;4.68;;;;;;;18.36;85.35;100407.56;5085195;28;20493;-31
2023/09/09 01:37:21;;;;;;;9.13;4.82;;;;;;;18.02;83.65;100417.88;4983106;28;20803;-30
2023/09/09 01:39:48;;;;;;;12.93;5.40;;;;;;;17.63;85.05;100413.53;5071391;28;20085;-30
2023/09/09 01:42:14;;;;;;;12.35;4.88;;;;;;;17.71;85.40;100403.34;5089283;28;20035;-30
2023/09/09 01:44:40;;;;;;;9.80;4.60;;;;;;;17.51;85.86;100407.50;5088815;28;20032;-29
2023/09/09 01:47:06;;;;;;;12.55;5.47;;;;;;;17.41;88.10;100408.22;5091432;28;20464;-29
2023/09/09 01:53:06;;;;;;;10.50;5.28;;;;;;;17.72;86.68;100413.06;5054596;28;20495;-29
2023/09/09 01:55:32;;;;;;;14.80;6.18;;;;;;;17.63;86.94;100405.44;5102474;28;20534;-29
2023/09/09 01:59:37;;;;;;;15.75;6.75;;;;;;;17.61;87.48;100406.75;5093050;28;20028;-29
2023/09/09 02:01:44;;;;;;;18.58;6.55;;;;;;;17.54;87.85;100396.19;5045832;28;20510;-29
2023/09/09 02:04:09;;;;;;;11.25;6.15;;;;;;;17.29;88.54;100407.56;5088209;28;20061;-30
2023/09/09 02:06:35;;;;;;;13.35;5.53;;;;;;;17.26;89.69;100406.19;5088564;28;20766;-30
2023/09/09 02:09:01;;;;;;;11.32;5.07;;;;;;;17.22;90.06;100402.38;5088160;28;20045;-30
2023/09/09 02:11:26;;;;;;;9.63;4.93;;;;;;;17.13;91.76;100405.78;5088586;28;20032;-29
2023/09/09 02:13:52;;;;;;;9.70;5.18;;;;;;;16.99;91.80;100402.69;5088487;28;20028;-30
2023/09/09 02:16:18;;;;;;;7.68;4.63;;;;;;;17.11;90.72;100402.53;5088527;28;20485;-30
2023/09/09 02:18:44;;;;;;;8.60;4.35;;;;;;;16.95;90.91;100402.34;5088554;28;20085;-30
2023/09/09 02:21:09;;;;;;;9.43;5.25;;;;;;;16.94;92.69;100402.59;5088173;28;20036;-29
2023/09/09 02:23:39;;;;;;;13.10;5.25;;;;;;;17.17;91.18;100407.72;5088570;28;20073;-29
2023/09/09 02:26:04;;;;;;;24.98;10.73;;;;;;;17.16;90.92;100406.09;5088621;28;20028;-29
2023/09/09 02:28:30;;;;;;;24.98;9.90;;;;;;;17.18;91.51;100405.81;5088087;28;20020;-29
2023/09/09 02:30:56;;;;;;;19.85;9.10;;;;;;;17.06;89.89;100404.09;5088128;28;20582;-31
2023/09/09 02:33:21;;;;;;;17.08;8.50;;;;;;;16.98;89.74;100398.34;5088020;28;20028;-30
2023/09/09 02:35:47;;;;;;;14.25;7.15;;;;;;;17.04;90.77;100397.31;5088199;28;20068;-29
2023/09/09 02:38:12;;;;;;;15.05;7.10;;;;;;;17.10;90.09;100390.94;5088160;28;20042;-30
2023/09/09 02:40:38;;;;;;;10.75;5.95;;;;;;;17.34;90.04;100390.63;5087526;28;20413;-29
2023/09/09 02:43:03;;;;;;;8.38;4.85;;;;;;;17.26;89.06;100390.03;5086600;28;20032;-30
2023/09/09 02:45:29;;;;;;;10.10;4.93;;;;;;;16.93;90.31;100390.22;5090557;28;20427;-29
2023/09/09 02:47:54;;;;;;;8.88;5.20;;;;;;;16.93;91.15;100395.59;5098108;28;20024;-31
2023/09/09 02:50:20;;;;;;;7.25;4.60;;;;;;;16.93;91.43;100382.13;5097719;28;20081;-32
2023/09/09 02:52:48;;;;;;;12.32;5.65;;;;;;;17.02;89.95;100399.47;5087722;28;20081;-31
2023/09/09 02:55:14;;;;;;;9.45;4.97;;;;;;;16.91;88.73;100393.16;5090927;28;20140;-30
2023/09/09 02:58:36;;;;;;;8.82;4.40;;;;;;;16.67;91.09;100387.19;5096268;28;20043;-30
2023/09/09 03:01:05;;;;;;;6.65;4.22;;;;;;;16.96;89.99;100387.84;5084380;28;20055;-31
2023/09/09 03:04:09;;;;;;;7.85;4.50;;;;;;;16.81;88.96;100382.25;5087801;28;20040;-29
2023/09/09 03:06:34;;;;;;;6.97;4.35;;;;;;;16.94;90.20;100386.44;5063787;28;20029;-32
2023/09/09 03:09:00;;;;;;;6.78;4.40;;;;;;;16.79;87.55;100390.56;5064053;28;20042;-30
2023/09/09 03:11:26;;;;;;;5.78;3.47;;;;;;;16.43;91.33;100378.56;5074542;28;20066;-29
2023/09/09 03:13:52;;;;;;;7.68;4.05;;;;;;;17.12;88.25;100391.50;5087396;28;20032;-29
2023/09/09 03:16:17;;;;;;;7.95;4.00;;;;;;;16.87;87.09;100395.53;5087054;28;20052;-30
2023/09/09 03:18:43;;;;;;;10.00;4.95;;;;;;;16.83;89.14;100386.31;5086944;28;20032;-29
2023/09/09 03:21:08;;;;;;;8.23;3.90;;;;;;;16.61;90.86;100385.50;5087169;28;20115;-30
2023/09/09 03:23:33;;;;;;;7.55;4.40;;;;;;;16.94;89.93;100381.88;5087021;28;20115;-30
2023/09/09 03:25:59;;;;;;;6.97;3.90;;;;;;;16.87;90.44;100382.06;5087217;28;20031;-30
2023/09/09 03:28:24;;;;;;;9.27;4.53;;;;;;;16.83;90.64;100380.94;5086971;28;20086;-30
2023/09/09 03:30:59;;;;;;;11.23;5.78;;;;;;;16.91;89.73;100389.66;5086690;28;20107;-29
2023/09/09 03:33:27;;;;;;;10.50;5.65;;;;;;;16.90;88.82;100382.63;5087014;28;20039;-32
2023/09/09 03:35:53;;;;;;;11.90;6.72;;;;;;;16.57;90.66;100381.69;5086601;28;20509;-29
2023/09/09 03:38:19;;;;;;;26.48;14.75;;;;;;;16.26;92.91;100381.28;5086724;28;20024;-29
2023/09/09 03:40:44;;;;;;;15.13;7.78;;;;;;;15.99;95.86;100382.00;5086735;28;20035;-29
2023/09/09 03:43:12;;;;;;;13.20;6.72;;;;;;;15.90;97.04;100377.31;5086502;28;20032;-30
2023/09/09 03:45:38;;;;;;;8.95;5.30;;;;;;;15.89;96.22;100375.66;5096274;28;20107;-31
2023/09/09 03:48:04;;;;;;;7.43;4.72;;;;;;;15.90;96.94;100378.13;5095568;28;20110;-29
2023/09/09 03:50:31;;;;;;;7.15;4.78;;;;;;;15.96;97.69;100385.19;5086344;28;20020;-29
2023/09/09 03:52:56;;;;;;;7.68;4.38;;;;;;;15.97;96.08;100384.13;5086651;28;20176;-30
2023/09/09 03:55:21;;;;;;;10.30;5.57;;;;;;;16.01;96.42;100389.84;5091700;28;20913;-30
2023/09/09 03:57:47;;;;;;;20.75;5.25;;;;;;;16.05;96.28;100385.59;5100981;28;20073;-29
2023/09/09 04:00:13;;;;;;;10.93;5.75;;;;;;;16.09;96.22;100385.91;5106619;28;20023;-30
2023/09/09 04:02:38;;;;;;;9.02;5.32;;;;;;;16.26;95.58;100386.69;5106901;28;20110;-28
2023/09/09 04:05:05;;;;;;;9.00;5.63;;;;;;;16.19;94.77;100375.28;5106648;28;20126;-29
2023/09/09 04:07:35;;;;;;;11.35;5.57;;;;;;;16.34;94.42;100388.13;5106423;28;20420;-29
2023/09/09 04:20:57;;;;;;;8.98;5.50;;;;;;;16.78;92.29;100388.94;4910063;29;20508;-29
2023/09/09 04:23:23;;;;;;;8.68;4.95;;;;;;;16.73;94.28;100380.00;5032467;28;20031;-29
2023/09/09 04:25:48;;;;;;;8.70;5.00;;;;;;;17.07;92.58;100391.44;5105336;28;20028;-30
2023/09/09 04:28:14;;;;;;;9.73;4.90;;;;;;;16.75;92.65;100394.03;5105365;28;20020;-30
2023/09/09 04:30:40;;;;;;;9.23;5.57;;;;;;;16.94;92.48;100391.81;5105748;28;20035;-29
2023/09/09 04:33:07;;;;;;;9.52;5.50;;;;;;;17.08;91.69;100398.47;5105698;28;20035;-29
2023/09/09 04:35:32;;;;;;;8.38;4.95;;;;;;;17.01;91.29;100395.16;5105957;28;20023;-29
2023/09/09 04:37:58;;;;;;;9.50;4.82;;;;;;;17.04;93.08;100397.31;5106037;28;20031;-29
2023/09/09 04:40:23;;;;;;;9.80;5.03;;;;;;;17.20;91.92;100396.44;5105850;28;20530;-29
2023/09/09 04:42:49;;;;;;;11.75;4.43;;;;;;;17.39;90.58;100401.47;5099142;28;20031;-30
2023/09/09 04:45:14;;;;;;;15.77;6.28;;;;;;;17.03;90.29;100395.72;5096932;28;20543;-29
2023/09/09 04:47:40;;;;;;;11.65;6.47;;;;;;;17.23;91.14;100395.91;5085306;28;20035;-29
2023/09/09 04:50:06;;;;;;;10.63;5.90;;;;;;;17.02;91.84;100402.16;5085515;28;20052;-30
2023/09/09 04:52:32;;;;;;;12.88;5.47;;;;;;;17.25;89.90;100403.75;5085476;28;20056;-29
2023/09/09 04:55:00;;;;;;;10.73;5.90;;;;;;;17.17;90.86;100413.09;5089059;28;20031;-31
2023/09/09 04:57:25;;;;;;;15.35;7.00;;;;;;;16.85;92.92;100397.66;5094284;28;20492;-31
2023/09/09 04:59:51;;;;;;;11.27;7.03;;;;;;;17.00;93.36;100405.13;5085585;28;20020;-29
2023/09/09 05:02:16;;;;;;;14.45;7.05;;;;;;;17.02;94.77;100400.28;5085448;28;20115;-29
2023/09/09 05:04:42;;;;;;;10.95;7.28;;;;;;;16.86;97.29;100396.63;5085505;28;20024;-30
2023/09/09 05:07:08;;;;;;;11.50;7.00;;;;;;;16.99;96.78;100394.59;5084382;28;20429;-30
2023/09/09 05:09:33;;;;;;;11.13;6.95;;;;;;;17.22;96.35;100399.69;5085125;28;20031;-29
2023/09/09 05:11:59;;;;;;;15.02;7.75;;;;;;;17.44;95.68;100391.50;5087753;28;20040;-29
2023/09/09 05:14:24;;;;;;;9.75;7.00;;;;;;;17.27;97.42;100375.47;5094391;28;20043;-29
2023/09/09 05:17:48;;;;;;;;;;;;;;;;;;;;;
2023/09/09 05:24:53;;;;;;;14.45;7.72;;;;;;;17.73;97.11;100387.69;5021688;28;20034;-29
2023/09/09 05:27:18;;;;;;;11.30;7.90;;;;;;;17.66;98.97;100387.94;4976046;28;20039;-29
2023/09/09 05:29:43;;;;;;;12.85;8.15;;;;;;;17.94;97.17;100403.00;5013839;28;20099;-30
2023/09/09 05:32:09;;;;;;;12.73;7.95;;;;;;;18.03;97.62;100401.44;5066069;28;20063;-31
2023/09/09 05:34:34;;;;;;;13.13;7.65;;;;;;;18.23;95.16;100394.53;5084852;28;20672;-30
2023/09/09 05:37:00;;;;;;;11.48;7.72;;;;;;;18.35;94.89;100397.84;5085478;28;20020;-30
2023/09/09 05:39:25;;;;;;;12.15;7.70;;;;;;;18.42;94.38;100403.81;5087925;28;20050;-30
2023/09/09 05:41:50;;;;;;;9.13;7.18;;;;;;;18.40;95.17;100391.66;5096452;28;20046;-29
2023/09/09 05:44:16;;;;;;;9.80;6.60;;;;;;;18.41;94.65;100394.09;5090292;28;20070;-29
2023/09/09 05:46:43;;;;;;;11.30;7.55;;;;;;;18.75;92.13;100404.47;5084887;28;20024;-30
2023/09/09 05:49:09;;;;;;;11.23;6.95;;;;;;;18.80;91.80;100404.56;5085159;28;20198;-30
2023/09/09 05:51:34;;;;;;;9.85;6.65;;;;;;;18.92;91.24;100403.47;5084781;28;20852;-29
2023/09/09 05:54:02;;;;;;;12.65;7.22;;;;;;;19.01;91.36;100394.59;5085065;28;20032;-30
2023/09/09 05:56:27;;;;;;;12.40;7.55;;;;;;;19.38;89.22;100409.00;5085130;28;20531;-33
2023/09/09 05:58:53;;;;;;;11.80;7.20;;;;;;;19.45;88.61;100404.13;5084790;28;20028;-29
2023/09/09 06:01:18;;;;;;;13.23;7.40;;;;;;;19.61;86.77;100411.16;5084660;28;20148;-29
2023/09/09 06:03:44;;;;;;;9.65;6.03;;;;;;;19.60;87.03;100412.25;5084912;28;20595;-29
2023/09/09 06:06:09;;;;;;;11.43;7.07;;;;;;;19.71;86.96;100404.16;5084676;28;20050;-31
2023/09/09 06:08:35;;;;;;;13.68;6.90;;;;;;;19.80;85.89;100413.38;5085201;28;20474;-31
2023/09/09 06:11:00;;;;;;;12.32;6.43;;;;;;;20.02;84.84;100403.06;5084873;28;20029;-31
2023/09/09 06:13:25;;;;;;;11.30;6.00;;;;;;;20.10;84.54;100417.09;5084492;28;20760;-29
2023/09/09 06:15:51;;;;;;;10.48;6.35;;;;;;;20.22;84.78;100415.72;5085192;28;20402;-30
2023/09/09 06:23:18;;;;;;;;;;;;;;;;;;;;;
2023/09/09 06:27:31;;;;;;;;;;;;;;;;;;;;;
2023/09/09 06:29:23;;;;;;;12.98;6.72;;;;;;;20.81;82.75;100416.91;4986595;28;20520;-30
2023/09/09 06:31:48;;;;;;;9.85;5.45;;;;;;;21.06;80.78;100428.69;5006756;28;20038;-29
2023/09/09 06:34:14;;;;;;;11.10;5.38;;;;;;;21.32;78.35;100423.13;5070265;28;20840;-29
2023/09/09 06:36:39;;;;;;;9.90;4.57;;;;;;;21.33;79.09;100428.28;5091110;28;20412;-31
2023/09/09 06:39:04;;;;;;;8.35;5.00;;;;;;;21.35;78.31;100426.09;5099379;28;20528;-31
2023/09/09 06:41:30;;;;;;;8.60;4.72;;;;;;;21.70;76.47;100426.09;5096327;28;20024;-31
2023/09/09 06:43:56;;;;;;;10.23;4.93;;;;;;;21.71;76.47;100422.31;5087814;28;20154;-29
2023/09/09 06:46:21;;;;;;;7.93;4.53;;;;;;;21.88;74.39;100411.81;5087978;28;20412;-29
2023/09/09 06:59:06;;;;;;;7.43;3.83;;;;;;;22.78;67.70;100433.97;5031847;28;20041;-29
2023/09/09 07:01:31;;;;;;;7.68;3.85;;;;;;;22.52;68.25;100430.78;5084978;28;20028;-30
2023/09/09 07:03:57;;;;;;;6.45;3.42;;;;;;;22.60;68.40;100430.13;5087389;28;20089;-29
2023/09/09 07:06:23;;;;;;;11.20;4.30;;;;;;;22.69;69.32;100433.81;5087647;28;20507;-29
2023/09/09 07:08:49;;;;;;;7.25;3.50;;;;;;;22.71;69.10;100430.81;5087213;28;20516;-29
2023/09/09 07:11:15;;;;;;;8.20;3.88;;;;;;;22.78;68.14;100425.81;5087428;28;20075;-29
2023/09/09 07:13:40;;;;;;;17.63;12.15;;;;;;;23.06;65.85;100432.28;5086993;28;20103;-31
2023/09/09 07:16:05;;;;;;;10.93;4.15;;;;;;;23.07;64.67;100428.47;5087256;28;20020;-30
2023/09/09 07:18:31;;;;;;;11.98;7.00;;;;;;;23.01;64.91;100421.44;5087294;28;20024;-33
2023/09/09 07:20:58;;;;;;;8.38;5.32;;;;;;;23.05;64.89;100422.50;5086982;28;20471;-30
2023/09/09 07:23:26;;;;;;;7.50;3.53;;;;;;;23.35;62.37;100415.78;5087464;28;20040;-29
2023/09/09 07:25:52;;;;;;;;;;;;;;;23.61;62.74;100427.06;5087509;28;20032;-30
2023/09/09 07:28:17;;;;;;;6.93;3.90;;;;;;;23.77;58.31;100435.03;5087053;28;19912;-30
2023/09/09 07:30:43;;;;;;;9.02;4.10;;;;;;;23.66;60.10;100429.72;5086337;28;20388;-30
2023/09/09 07:33:09;;;;;;;7.78;3.25;;;;;;;23.74;58.47;100427.41;5097650;28;20040;-30
2023/09/09 07:35:35;;;;;;;6.85;4.05;;;;;;;23.83;56.81;100425.69;5087750;28;20389;-30
2023/09/09 07:38:03;;;;;;;6.10;2.95;;;;;;;24.12;53.93;100430.06;5095020;28;20035;-29
2023/09/09 07:40:29;;;;;;;12.73;3.75;;;;;;;24.02;55.38;100426.41;5107266;28;20027;-29
2023/09/09 07:42:55;;;;;;;10.10;3.08;;;;;;;24.00;51.53;100425.91;5107161;28;20428;-31
2023/09/09 07:45:20;;;;;;;9.18;3.70;;;;;;;24.18;49.35;100421.47;5106993;28;20048;-30
2023/09/09 07:47:46;;;;;;;7.22;2.92;;;;;;;24.42;50.35;100423.22;5106985;28;20708;-31
2023/09/09 07:50:12;;;;;;;6.68;3.15;;;;;;;24.63;46.87;100429.09;5106757;28;20018;-32
2023/09/09 07:53:00;;;;;;;9.13;4.35;;;;;;;24.56;48.90;100417.78;5106813;28;20121;-30
2023/09/09 07:55:26;;;;;;;13.20;7.55;;;;;;;24.83;46.72;100425.94;5093476;28;20043;-30
2023/09/09 07:57:51;;;;;;;7.43;3.08;;;;;;;24.81;48.68;100427.38;5093449;28;20020;-29
2023/09/09 08:00:17;;;;;;;8.00;2.80;;;;;;;25.05;46.15;100427.91;5086324;28;20036;-33
2023/09/09 08:02:42;;;;;;;9.43;4.22;;;;;;;25.03;47.87;100421.16;5085997;28;20524;-30
2023/09/09 08:05:08;;;;;;;7.28;3.20;;;;;;;25.12;46.62;100411.13;5086167;28;20069;-30
2023/09/09 08:07:34;;;;;;;8.18;3.38;;;;;;;25.38;45.25;100425.00;5086139;28;20035;-30
2023/09/09 08:09:59;;;;;;;6.40;2.70;;;;;;;25.45;44.14;100419.91;5086093;28;20058;-32
2023/09/09 08:12:25;;;;;;;11.25;3.20;;;;;;;25.55;44.34;100407.94;5085952;28;20036;-30
2023/09/09 08:15:03;;;;;;;8.70;3.10;;;;;;;25.60;44.21;100409.72;5086246;28;20028;-30
2023/09/09 08:17:29;;;;;;;9.38;3.00;;;;;;;26.06;41.88;100433.97;5084660;28;20032;-31
2023/09/09 08:19:54;;;;;;;7.05;2.95;;;;;;;26.09;39.05;100423.53;5086149;28;20027;-31
2023/09/09 08:22:19;;;;;;;5.15;2.47;;;;;;;26.28;36.67;100429.56;5086273;28;20870;-30
2023/09/09 08:24:45;;;;;;;7.63;3.15;;;;;;;26.15;40.03;100423.06;5085779;28;20032;-30
2023/09/09 08:27:17;;;;;;;7.28;2.90;;;;;;;26.23;40.18;100416.03;5085878;28;20032;-30
2023/09/09 08:29:43;;;;;;;10.13;3.03;;;;;;;26.42;39.16;100413.88;5085563;28;20077;-32
2023/09/09 08:32:09;;;;;;;6.70;3.13;;;;;;;26.58;36.65;100418.91;5088803;28;20035;-30
2023/09/09 08:34:37;;;;;;;7.57;2.35;;;;;;;26.77;34.64;100424.13;5097028;28;20020;-32
2023/09/09 08:38:10;;;;;;;5.40;2.33;;;;;;;26.70;34.71;100424.56;5091417;28;20023;-29
2023/09/09 08:47:41;;;;;;;5.40;2.33;;;;;;;26.72;26.89;100416.06;5002604;28;20450;-30
2023/09/09 08:55:01;;;;;;;6.90;3.77;;;;;;;27.46;23.04;100423.34;5062616;28;20059;-30
2023/09/09 08:58:15;;;;;;;6.07;2.08;;;;;;;27.69;22.36;100414.97;5058755;28;20754;-29
2023/09/09 09:01:38;;;;;;;7.60;2.35;;;;;;;27.69;22.72;100421.25;5052780;28;20568;-29
2023/09/09 09:08:48;;;;;;;;;;;;;;;;;;;;;
2023/09/09 09:12:11;;;;;;;5.93;2.15;;;;;;;28.25;22.98;100423.97;4897271;28;20038;-32
2023/09/09 09:16:08;;;;;;;;;;;;;;;;;;;;;
2023/09/09 09:19:21;;;;;;;;;;;;;;;;;;;;;
2023/09/09 09:21:47;;;;;;;6.53;1.75;;;;;;;28.54;20.59;100422.41;4934720;28;20051;-30
2023/09/09 09:24:58;;;;;;;5.03;1.40;;;;;;;28.79;20.89;100415.97;5002207;28;20404;-32
2023/09/09 09:34:18;;;;;;;3.90;1.60;;;;;;;29.24;20.00;100407.09;4982341;28;20069;-31
2023/09/09 09:36:45;;;;;;;4.32;1.50;;;;;;;29.35;20.83;100398.44;5034850;28;20036;-30
2023/09/09 09:39:54;;;;;;;3.33;1.58;;;;;;;29.23;19.36;100399.97;5084955;28;20076;-30
2023/09/09 09:42:21;;;;;;;3.70;1.33;;;;;;;29.27;18.54;100407.56;5062478;28;20372;-31
2023/09/09 09:44:46;;;;;;;6.60;1.75;;;;;;;29.32;19.46;100388.13;5081456;28;20051;-27
2023/09/09 09:47:12;;;;;;;11.63;2.50;;;;;;;29.43;18.94;100389.31;5085188;28;20063;-30
2023/09/09 09:50:30;;;;;;;3.55;1.40;;;;;;;29.05;18.44;100393.00;5084798;28;20108;-30
2023/09/09 09:53:02;;;;;;;9.50;2.08;;;;;;;28.81;18.97;100394.50;5063459;28;20044;-30
2023/09/09 09:55:29;;;;;;;5.20;1.65;;;;;;;28.69;19.49;100383.44;5092274;28;20035;-29
2023/09/09 09:58:02;;;;;;;5.85;1.80;;;;;;;29.24;19.34;100374.13;5095017;28;20059;-29
2023/09/09 10:00:28;;;;;;;5.82;2.10;;;;;;;29.67;18.13;100379.50;5089074;28;20111;-30
2023/09/09 10:02:56;;;;;;;4.05;1.90;;;;;;;29.67;17.62;100374.00;5088901;28;20114;-29
2023/09/09 10:09:13;;;;;;;13.90;9.88;;;;;;;30.08;18.10;100377.75;5024576;28;20037;-30
2023/09/09 10:16:15;;;;;;;4.47;2.83;;;;;;;30.13;17.73;100374.78;5049964;28;20042;-29
2023/09/09 10:22:21;;;;;;;4.70;1.63;;;;;;;29.98;17.55;100368.84;4953768;28;20047;-30
2023/09/09 10:24:48;;;;;;;5.00;1.60;;;;;;;29.94;18.78;100359.66;4996020;28;20036;-30
2023/09/09 10:27:16;;;;;;;4.22;1.52;;;;;;;29.83;16.91;100358.50;5088582;27;20027;-31
2023/09/09 10:29:43;;;;;;;3.65;1.50;;;;;;;29.91;18.87;100360.34;5097020;28;20111;-31
2023/09/09 10:32:12;;;;;;;4.90;1.60;;;;;;;30.16;16.45;100341.09;5094972;28;20039;-31
2023/09/09 10:34:39;;;;;;;2.88;1.30;;;;;;;29.97;17.24;100356.22;5087818;28;20111;-30
2023/09/09 10:37:06;;;;;;;4.07;1.50;;;;;;;29.75;17.21;100345.66;5088182;28;20043;-30
2023/09/09 10:39:36;;;;;;;9.45;1.45;;;;;;;30.31;16.95;100343.19;5087703;28;20020;-31
2023/09/09 10:42:04;;;;;;;4.45;1.58;;;;;;;30.86;17.56;100326.31;5087868;28;20044;-32
2023/09/09 10:44:30;;;;;;;42.65;5.55;;;;;;;31.49;15.84;100333.97;5087427;28;20107;-31
2023/09/09 10:46:57;;;;;;;4.35;1.50;;;;;;;30.73;17.49;100320.84;5088255;28;20123;-31
2023/09/09 10:49:32;;;;;;;4.07;1.45;;;;;;;30.69;16.75;100328.22;5087759;28;20076;-32
2023/09/09 10:51:57;;;;;;;5.18;2.65;;;;;;;30.84;16.13;100327.47;5087390;28;20044;-30
2023/09/09 10:54:24;;;;;;;4.90;2.00;;;;;;;31.07;15.98;100324.19;5087896;27;20032;-30
2023/09/09 10:56:52;;;;;;;4.13;1.85;;;;;;;31.03;16.23;100317.78;5098557;28;20028;-30
2023/09/09 10:59:23;;;;;;;4.22;1.50;;;;;;;30.44;17.38;100314.50;5087336;28;20055;-32
2023/09/09 11:02:07;;;;;;;2.40;1.30;;;;;;;30.12;17.95;100315.41;5087595;28;20131;-31
2023/09/09 11:04:37;;;;;;;5.85;3.13;;;;;;;30.70;16.87;100310.53;5086351;28;20031;-29
2023/09/09 11:07:07;;;;;;;2.20;1.23;;;;;;;30.99;18.26;100300.34;5087658;28;20028;-30
2023/09/09 11:09:33;;;;;;;4.05;1.88;;;;;;;31.27;16.92;100305.84;5099084;28;20024;-33
2023/09/09 11:11:59;;;;;;;4.15;1.70;;;;;;;30.92;17.25;100305.69;5107576;28;20035;-30
2023/09/09 11:14:32;;;;;;;5.80;1.73;;;;;;;31.05;16.01;100307.22;5107621;28;20032;-31
2023/09/09 11:16:57;;;;;;;4.55;1.48;;;;;;;30.69;17.12;100291.59;5107719;28;20096;-33
2023/09/09 11:19:24;;;;;;;3.67;1.50;;;;;;;30.09;17.28;100292.16;5107731;28;20036;-32
2023/09/09 11:21:52;;;;;;;4.72;1.60;;;;;;;30.72;16.59;100290.91;5107381;28;20397;-30
2023/09/09 11:24:19;;;;;;;4.78;1.50;;;;;;;31.07;17.28;100285.63;5102998;28;20019;-30
2023/09/09 11:26:46;;;;;;;4.10;1.57;;;;;;;30.79;16.59;100291.94;5098686;28;20030;-30
2023/09/09 11:29:12;;;;;;;7.05;1.75;;;;;;;31.03;16.75;100284.72;5096046;28;20494;-30
2023/09/09 11:31:38;;;;;;;9.43;1.98;;;;;;;31.23;17.21;100283.69;5094132;28;20126;-33
2023/09/09 11:34:04;;;;;;;12.40;2.25;;;;;;;31.45;16.04;100284.28;5086876;28;20472;-30
2023/09/09 11:36:30;;;;;;;5.45;1.55;;;;;;;31.39;16.96;100274.66;5086517;28;20028;-32
2023/09/09 11:38:57;;;;;;;3.60;1.38;;;;;;;31.37;16.21;100268.69;5087296;28;20035;-33
2023/09/09 11:41:24;;;;;;;2.33;1.08;;;;;;;31.56;16.72;100263.28;5086848;28;20527;-32
2023/09/09 11:44:16;;;;;;;5.07;1.52;;;;;;;31.38;16.39;100262.03;5086682;28;20107;-30
2023/09/09 11:46:45;;;;;;;4.70;1.63;;;;;;;31.82;16.55;100259.97;5089145;28;20158;-30
2023/09/09 11:49:12;;;;;;;6.65;1.83;;;;;;;32.54;17.19;100260.78;5106367;27;20035;-29
2023/09/09 11:51:38;;;;;;;5.63;3.47;;;;;;;32.94;17.03;100254.91;5107112;28;20553;-30
2023/09/09 11:54:06;;;;;;;6.38;3.28;;;;;;;32.57;15.56;100255.38;5106255;28;20023;-33
2023/09/09 11:56:33;;;;;;;7.65;3.42;;;;;;;32.63;16.45;100261.38;5095764;28;20248;-30
2023/09/09 11:59:10;;;;;;;5.18;1.70;;;;;;;32.99;16.12;100253.78;5104753;28;20044;-32
2023/09/09 12:01:43;;;;;;;4.80;1.73;;;;;;;32.78;15.97;100251.44;5091048;28;20784;-30
2023/09/09 12:04:11;;;;;;;3.97;1.70;;;;;;;32.31;16.41;100235.88;5086515;28;20028;-30
2023/09/09 12:06:38;;;;;;;2.53;1.40;;;;;;;32.67;16.26;100231.88;5085854;28;20049;-30
2023/09/09 12:09:05;;;;;;;3.95;1.60;;;;;;;32.74;16.34;100232.03;5086179;28;20039;-30
2023/09/09 12:11:31;;;;;;;;;;;;;;;32.88;16.97;100239.00;5086417;28;20031;-31
2023/09/09 12:14:00;;;;;;;6.07;1.60;;;;;;;33.38;15.67;100237.91;5094827;28;19920;-31
2023/09/09 12:16:31;;;;;;;3.88;1.33;;;;;;;33.21;17.75;100230.94;5089230;28;20741;-32
2023/09/09 12:18:57;;;;;;;4.43;2.10;;;;;;;32.93;15.65;100238.69;5085801;28;20031;-32
2023/09/09 12:21:25;;;;;;;4.40;1.70;;;;;;;33.42;16.56;100235.22;5086120;28;20063;-30
2023/09/09 12:23:58;;;;;;;2.92;1.35;;;;;;;33.51;15.59;100233.00;5086504;28;20058;-33
2023/09/09 12:26:23;;;;;;;4.30;1.48;;;;;;;33.50;15.72;100223.09;5095298;28;20205;-30
2023/09/09 12:29:09;;;;;;;4.45;1.58;;;;;;;32.95;17.17;100225.31;5106544;28;20111;-30
2023/09/09 12:31:50;;;;;;;2.22;1.40;;;;;;;32.81;15.68;100237.66;5106090;28;20682;-31
2023/09/09 12:34:20;;;;;;;4.70;1.48;;;;;;;32.94;15.92;100224.50;5106740;28;20043;-31
2023/09/09 12:36:48;;;;;;;4.38;1.30;;;;;;;33.27;17.50;100219.59;5106282;28;20399;-29
2023/09/09 12:39:29;;;;;;;2.45;1.40;;;;;;;33.03;15.69;100218.75;5106205;28;20499;-30
2023/09/09 12:42:07;;;;;;;3.67;1.40;;;;;;;33.04;16.27;100217.59;5106152;28;20050;-30
2023/09/09 12:44:48;;;;;;;4.45;1.40;;;;;;;32.80;16.01;100208.47;5106112;28;20573;-30
2023/09/09 12:47:19;;;;;;;4.32;1.42;;;;;;;32.08;16.13;100211.75;5105850;28;20024;-29
2023/09/09 12:49:45;;;;;;;3.95;1.58;;;;;;;32.36;16.96;100210.72;5106051;28;20024;-30
2023/09/09 12:52:10;;;;;;;4.15;1.50;;;;;;;32.08;16.14;100211.75;5105654;28;20054;-29
2023/09/09 12:54:36;;;;;;;5.30;1.33;;;;;;;32.26;16.63;100205.78;5104270;28;20049;-30
2023/09/09 12:57:01;;;;;;;3.75;1.30;;;;;;;32.76;16.31;100191.03;5097133;28;20128;-32